Time,TemperatureF,DewpointF,PressureIn,WindDirection,WindDirectionDegrees,WindSpeedMPH,WindSpeedGustMPH,Humidity,HourlyPrecipIn,Conditions,Clouds,dailyrainin,SoftwareType,DateUTC
2013-10-02 00:14:00,55.0,54.0,30.12,ESE,110,0.0,0.0,97,0.00,,,0.00,,2013-10-02 04:14:00,
2013-10-02 00:24:00,55.0,54.0,30.12,ESE,110,0.0,0.0,97,0.00,,,0.00,,2013-10-02 04:24:00,
2013-10-02 00:54:00,55.0,54.0,30.12,ESE,110,0.0,0.0,97,0.00,,,0.00,,2013-10-02 04:54:00,
2013-10-02 01:13:00,55.0,54.0,30.12,ESE,110,0.0,0.0,98,0.00,,,0.00,,2013-10-02 05:13:00,
2013-10-02 01:23:00,55.0,54.0,30.13,ESE,115,0.0,0.0,98,0.00,,,0.00,,2013-10-02 05:23:00,
2013-10-02 01:53:00,55.0,54.0,30.13,ESE,115,0.0,0.0,98,0.00,,,0.00,,2013-10-02 05:53:00,
2013-10-02 02:12:00,55.0,54.0,30.13,ESE,115,0.0,0.0,98,0.00,,,0.00,,2013-10-02 06:12:00,
2013-10-02 02:22:00,55.0,54.0,30.12,ESE,115,0.0,0.0,98,0.00,,,0.00,,2013-10-02 06:22:00,
2013-10-02 02:42:00,54.0,53.0,30.12,ESE,115,0.0,0.0,98,0.00,,,0.00,,2013-10-02 06:42:00,
2013-10-02 02:52:00,54.0,53.0,30.12,ESE,115,0.0,0.0,98,0.00,,,0.00,,2013-10-02 06:52:00,
2013-10-02 03:12:00,55.0,54.0,30.12,ESE,115,0.0,0.0,98,0.00,,,0.00,,2013-10-02 07:12:00,
2013-10-02 03:22:00,55.0,54.0,30.12,ESE,115,0.0,0.0,98,0.00,,,0.00,,2013-10-02 07:22:00,
2013-10-02 03:42:00,54.0,53.0,30.12,ESE,115,0.0,0.0,98,0.00,,,0.00,,2013-10-02 07:42:00,
2013-10-02 03:52:00,54.0,53.0,30.13,ESE,114,0.0,0.0,98,0.00,,,0.00,,2013-10-02 07:52:00,
2013-10-02 04:11:00,54.0,53.0,30.12,ESE,114,0.0,0.0,98,0.00,,,0.00,,2013-10-02 08:11:00,
2013-10-02 04:22:00,54.0,53.0,30.13,ESE,115,0.0,0.0,98,0.00,,,0.00,,2013-10-02 08:22:00,
2013-10-02 04:52:00,54.0,54.0,30.12,ESE,115,0.0,0.0,99,0.00,,,0.00,,2013-10-02 08:52:00,
2013-10-02 05:11:00,54.0,54.0,30.13,ESE,115,0.0,0.0,99,0.00,,,0.00,,2013-10-02 09:11:00,
2013-10-02 05:21:00,54.0,54.0,30.12,ESE,115,0.0,0.0,99,0.00,,,0.00,,2013-10-02 09:21:00,
2013-10-02 05:54:00,53.0,53.0,30.12,ESE,114,0.0,0.0,99,0.00,,,0.00,,2013-10-02 09:54:00,
2013-10-02 06:12:00,53.0,53.0,30.12,ESE,114,0.0,0.0,99,0.00,,,0.00,,2013-10-02 10:12:00,
2013-10-02 06:23:00,53.0,53.0,30.13,ESE,115,0.0,0.0,99,0.00,,,0.00,,2013-10-02 10:23:00,
2013-10-02 06:53:00,51.0,51.0,30.13,ESE,115,0.0,0.0,99,0.00,,,0.00,,2013-10-02 10:53:00,
2013-10-02 07:22:00,52.0,52.0,30.13,ESE,115,0.0,0.0,99,0.00,,,0.00,,2013-10-02 11:22:00,
2013-10-02 07:52:00,52.0,52.0,30.13,ESE,115,0.0,0.0,99,0.00,,,0.00,,2013-10-02 11:52:00,
2013-10-02 08:12:00,53.0,53.0,30.14,ESE,114,0.0,0.0,99,0.00,,,0.00,,2013-10-02 12:12:00,
2013-10-02 08:22:00,53.0,53.0,30.14,ESE,115,0.0,0.0,99,0.00,,,0.00,,2013-10-02 12:22:00,
2013-10-02 08:52:00,55.0,55.0,30.13,East,85,0.0,1.0,99,0.00,,,0.00,,2013-10-02 12:52:00,
2013-10-02 09:11:00,56.0,56.0,30.14,East,84,0.0,0.0,99,0.00,,,0.00,,2013-10-02 13:11:00,
2013-10-02 09:22:00,57.0,57.0,30.13,East,84,0.0,0.0,99,0.00,,,0.00,,2013-10-02 13:22:00,
2013-10-02 09:52:00,59.0,58.0,30.14,West,278,0.0,1.0,97,0.00,,,0.00,,2013-10-02 13:52:00,
2013-10-02 10:11:00,61.0,59.0,30.12,WSW,245,0.0,2.0,94,0.00,,,0.00,,2013-10-02 14:11:00,
2013-10-02 10:21:00,63.0,60.0,30.13,West,270,0.0,1.0,91,0.00,,,0.00,,2013-10-02 14:21:00,
2013-10-02 10:42:00,64.0,61.0,30.12,West,271,0.0,1.0,90,0.00,,,0.00,,2013-10-02 14:42:00,
2013-10-02 10:52:00,67.0,61.0,30.11,West,277,0.0,2.0,82,0.00,,,0.00,,2013-10-02 14:52:00,
2013-10-02 11:11:00,68.0,62.0,30.11,NNW,344,1.0,2.0,80,0.00,,,0.00,,2013-10-02 15:11:00,
2013-10-02 11:22:00,69.0,63.0,30.11,West,266,0.0,2.0,81,0.00,,,0.00,,2013-10-02 15:22:00,
2013-10-02 11:54:00,73.0,65.0,30.10,West,263,1.0,3.0,75,0.00,,,0.00,,2013-10-02 15:54:00,
2013-10-02 12:12:00,73.0,63.0,30.09,West,259,0.0,2.0,71,0.00,,,0.00,,2013-10-02 16:12:00,
2013-10-02 12:23:00,74.0,64.0,30.10,West,259,1.0,3.0,70,0.00,,,0.00,,2013-10-02 16:23:00,
2013-10-02 12:53:00,75.0,63.0,30.10,West,269,2.0,5.0,67,0.00,,,0.00,,2013-10-02 16:53:00,
2013-10-02 13:12:00,75.0,63.0,30.09,West,272,1.0,3.0,66,0.00,,,0.00,,2013-10-02 17:12:00,
2013-10-02 13:23:00,76.0,63.0,30.09,ENE,67,1.0,3.0,65,0.00,,,0.00,,2013-10-02 17:23:00,
2013-10-02 13:42:00,77.0,65.0,30.08,WNW,287,0.0,3.0,67,0.00,,,0.00,,2013-10-02 17:42:00,
2013-10-02 13:52:00,78.0,65.0,30.08,WNW,285,0.0,3.0,65,0.00,,,0.00,,2013-10-02 17:52:00,
2013-10-02 14:12:00,78.0,65.0,30.07,ESE,123,0.0,3.0,64,0.00,,,0.00,,2013-10-02 18:12:00,
2013-10-02 14:22:00,78.0,63.0,30.07,WSW,257,1.0,3.0,60,0.00,,,0.00,,2013-10-02 18:22:00,
2013-10-02 14:52:00,79.0,65.0,30.06,ENE,69,0.0,3.0,63,0.00,,,0.00,,2013-10-02 18:52:00,
2013-10-02 15:12:00,79.0,65.0,30.06,NNE,22,1.0,2.0,63,0.00,,,0.00,,2013-10-02 19:12:00,
2013-10-02 15:22:00,79.0,65.0,30.06,WSW,240,0.0,2.0,62,0.00,,,0.00,,2013-10-02 19:22:00,
2013-10-02 15:42:00,78.0,62.0,30.06,West,277,1.0,3.0,59,0.00,,,0.00,,2013-10-02 19:42:00,
2013-10-02 15:52:00,76.0,63.0,30.06,ENE,78,0.0,1.0,64,0.00,,,0.00,,2013-10-02 19:52:00,
2013-10-02 16:11:00,77.0,64.0,30.06,ESE,111,0.0,2.0,65,0.00,,,0.00,,2013-10-02 20:11:00,
2013-10-02 16:22:00,75.0,64.0,30.06,NW,312,0.0,1.0,69,0.00,,,0.00,,2013-10-02 20:22:00,
2013-10-02 16:52:00,74.0,64.0,30.06,East,87,0.0,2.0,71,0.00,,,0.00,,2013-10-02 20:52:00,
2013-10-02 17:11:00,74.0,65.0,30.06,NNE,27,0.0,3.0,73,0.00,,,0.00,,2013-10-02 21:11:00,
2013-10-02 17:22:00,73.0,63.0,30.06,ESE,111,0.0,3.0,70,0.00,,,0.00,,2013-10-02 21:22:00,
2013-10-02 17:44:00,72.0,62.0,30.06,ENE,72,0.0,1.0,71,0.00,,,0.00,,2013-10-02 21:44:00,
2013-10-02 17:55:00,71.0,61.0,30.06,WNW,290,0.0,0.0,71,0.00,,,0.00,,2013-10-02 21:55:00,
2013-10-02 18:13:00,71.0,62.0,30.07,WNW,291,0.0,0.0,74,0.00,,,0.00,,2013-10-02 22:13:00,
2013-10-02 18:24:00,70.0,62.0,30.08,WNW,291,0.0,0.0,75,0.00,,,0.00,,2013-10-02 22:24:00,
2013-10-02 18:33:00,70.0,62.0,30.08,WNW,291,0.0,0.0,75,0.00,,,0.00,,2013-10-02 22:33:00,
2013-10-02 18:44:00,70.0,62.0,30.08,WNW,291,0.0,0.0,75,0.00,,,0.00,,2013-10-02 22:44:00,
2013-10-02 18:54:00,70.0,62.0,30.08,WNW,291,0.0,0.0,75,0.00,,,0.00,,2013-10-02 22:54:00,
2013-10-02 19:22:00,67.0,61.0,30.09,East,88,0.0,0.0,82,0.00,,,0.00,,2013-10-02 23:22:00,
2013-10-02 19:52:00,66.0,60.0,30.10,East,88,0.0,0.0,82,0.00,,,0.00,,2013-10-02 23:52:00,
2013-10-02 20:02:00,66.0,60.0,30.10,East,88,0.0,0.0,82,0.00,,,0.00,,2013-10-03 00:02:00,
2013-10-02 20:12:00,66.0,60.0,30.10,East,88,0.0,0.0,82,0.00,,,0.00,,2013-10-03 00:12:00,
2013-10-02 20:22:00,66.0,61.0,30.11,East,88,0.0,0.0,83,0.00,,,0.00,,2013-10-03 00:22:00,
2013-10-02 20:42:00,65.0,60.0,30.12,East,88,0.0,0.0,85,0.00,,,0.00,,2013-10-03 00:42:00,
2013-10-02 20:52:00,65.0,60.0,30.12,East,88,0.0,0.0,84,0.00,,,0.00,,2013-10-03 00:52:00,
2013-10-02 21:11:00,65.0,60.0,30.12,South,181,0.0,1.0,84,0.00,,,0.00,,2013-10-03 01:11:00,
2013-10-02 21:23:00,65.0,60.0,30.13,WSW,252,0.0,1.0,84,0.00,,,0.00,,2013-10-03 01:23:00,
2013-10-02 21:32:00,65.0,60.0,30.13,WSW,252,0.0,1.0,84,0.00,,,0.00,,2013-10-03 01:32:00,
2013-10-02 21:42:00,65.0,60.0,30.13,WSW,252,0.0,1.0,84,0.00,,,0.00,,2013-10-03 01:42:00,
2013-10-02 21:52:00,64.0,60.0,30.13,WSW,250,0.0,0.0,87,0.00,,,0.00,,2013-10-03 01:52:00,
2013-10-02 22:11:00,63.0,60.0,30.14,WSW,250,0.0,0.0,89,0.00,,,0.00,,2013-10-03 02:11:00,
2013-10-02 22:22:00,62.0,60.0,30.14,WSW,250,0.0,0.0,92,0.00,,,0.00,,2013-10-03 02:22:00,
2013-10-02 22:52:00,62.0,60.0,30.15,WSW,250,0.0,0.0,92,0.00,,,0.00,,2013-10-03 02:52:00,
2013-10-02 23:03:00,62.0,60.0,30.15,WSW,250,0.0,0.0,92,0.00,,,0.00,,2013-10-03 03:03:00,
2013-10-02 23:23:00,60.0,58.0,30.16,WSW,250,0.0,0.0,93,0.00,,,0.00,,2013-10-03 03:23:00,
2013-10-02 23:44:00,60.0,58.0,30.17,WSW,250,0.0,0.0,94,0.00,,,0.00,,2013-10-03 03:44:00,
2013-10-02 23:54:00,60.0,58.0,30.17,WSW,250,0.0,0.0,94,0.00,,,0.00,,2013-10-03 03:54:00,